createdAt,value
2017-03-30T00:02:36.152Z,1025.8
2017-03-30T00:05:44.316Z,1025.8
2017-03-30T00:06:47.031Z,1025.8
2017-03-30T00:07:50.132Z,1025.8
2017-03-30T00:08:52.480Z,1025.8
2017-03-30T00:09:55.336Z,1025.8
2017-03-30T00:10:57.683Z,1025.8
2017-03-30T00:12:00.535Z,1025.8
2017-03-30T00:13:03.641Z,1025.8
2017-03-30T00:14:05.891Z,1025.8
2017-03-30T00:15:08.748Z,1025.8
2017-03-30T00:16:11.464Z,1025.8
2017-03-30T00:17:14.318Z,1025.8
2017-03-30T00:18:17.417Z,1025.8
2017-03-30T00:19:19.762Z,1025.8
2017-03-30T00:20:22.610Z,1025.8
2017-03-30T00:21:25.335Z,1025.8
2017-03-30T00:22:28.046Z,1025.8
2017-03-30T00:23:30.645Z,1025.8
2017-03-30T00:24:33.495Z,1025.8
2017-03-30T00:25:35.842Z,1025.8
2017-03-30T00:26:38.695Z,1025.8
2017-03-30T00:27:41.547Z,1025.8
2017-03-30T00:28:44.647Z,1025.8
2017-03-30T00:29:46.883Z,1025.9
2017-03-30T00:30:49.736Z,1025.9
2017-03-30T00:31:52.584Z,1025.8
2017-03-30T00:32:54.931Z,1025.9
2017-03-30T00:33:58.031Z,1025.9
2017-03-30T00:35:00.379Z,1025.9
2017-03-30T00:36:03.227Z,1025.9
2017-03-30T00:37:06.081Z,1025.8
2017-03-30T00:38:08.837Z,1025.8
2017-03-30T00:39:11.809Z,1025.9
2017-03-30T00:40:14.157Z,1025.8
2017-03-30T00:41:17.005Z,1025.8
2017-03-30T00:42:19.861Z,1025.8
2017-03-30T00:43:22.212Z,1025.8
2017-03-30T00:44:25.318Z,1025.8
2017-03-30T00:45:27.659Z,1025.8
2017-03-30T00:46:30.376Z,1025.8
2017-03-30T00:47:33.226Z,1025.8
2017-03-30T00:48:36.074Z,1025.8
2017-03-30T00:49:39.228Z,1025.8
2017-03-30T00:50:41.460Z,1025.9
2017-03-30T00:51:44.307Z,1025.8
2017-03-30T00:52:47.024Z,1025.9
2017-03-30T00:53:49.874Z,1025.8
2017-03-30T00:54:52.525Z,1025.8
2017-03-30T00:55:54.870Z,1025.8
2017-03-30T00:56:57.719Z,1025.8
2017-03-30T00:58:00.572Z,1025.8
2017-03-30T00:59:03.423Z,1025.8
2017-03-30T01:00:06.025Z,1025.8
2017-03-30T01:01:08.607Z,1025.8
2017-03-30T01:02:11.456Z,1025.9
2017-03-30T01:03:14.305Z,1025.9
2017-03-30T01:04:17.021Z,1025.9
2017-03-30T01:05:19.626Z,1025.9
2017-03-30T01:06:22.341Z,1025.9
2017-03-30T01:07:25.189Z,1025.8
2017-03-30T01:08:27.902Z,1025.9
2017-03-30T01:09:30.256Z,1025.9
2017-03-30T01:10:33.355Z,1025.9
2017-03-30T01:11:36.071Z,1025.9
2017-03-30T01:12:38.423Z,1025.8
2017-03-30T01:13:41.277Z,1025.8
2017-03-30T01:14:43.989Z,1025.8
2017-03-30T01:16:50.002Z,1025.8
2017-03-30T01:18:54.756Z,1025.8
2017-03-30T01:19:57.607Z,1025.8
2017-03-30T01:21:00.323Z,1025.8
2017-03-30T01:22:03.426Z,1025.8
2017-03-30T01:23:06.137Z,1025.8
2017-03-30T01:24:08.491Z,1025.8
2017-03-30T01:25:11.339Z,1025.7
2017-03-30T01:26:14.188Z,1025.7
2017-03-30T01:27:16.785Z,1025.7
2017-03-30T01:28:19.635Z,1025.6
2017-03-30T01:29:21.981Z,1025.7
2017-03-30T01:30:24.832Z,1025.7
2017-03-30T01:31:27.680Z,1025.6
2017-03-30T01:32:30.790Z,1025.7
2017-03-30T01:33:33.143Z,1025.6
2017-03-30T01:34:35.997Z,1025.6
2017-03-30T01:35:38.343Z,1025.7
2017-03-30T01:36:41.425Z,1025.7
2017-03-30T01:37:44.080Z,1025.7
2017-03-30T01:38:46.932Z,1025.7
2017-03-30T01:39:49.281Z,1025.7
2017-03-30T01:40:52.132Z,1025.7
2017-03-30T01:41:54.982Z,1025.7
2017-03-30T01:42:58.082Z,1025.7
2017-03-30T01:44:00.298Z,1025.7
2017-03-30T01:45:03.151Z,1025.7
2017-03-30T01:46:05.924Z,1025.6
2017-03-30T01:47:08.273Z,1025.7
2017-03-30T01:48:11.244Z,1025.7
2017-03-30T01:49:14.095Z,1025.7
2017-03-30T01:50:16.440Z,1025.7
2017-03-30T01:51:19.286Z,1025.7
2017-03-30T01:52:22.135Z,1025.8
2017-03-30T01:53:25.240Z,1025.8
2017-03-30T01:54:27.587Z,1025.8
2017-03-30T01:55:30.440Z,1025.7
2017-03-30T01:57:35.697Z,1025.7
2017-03-30T01:59:41.626Z,1025.8
2017-03-30T02:00:43.972Z,1025.8
2017-03-30T02:01:46.685Z,1025.8
2017-03-30T02:02:49.404Z,1025.8
2017-03-30T02:03:52.259Z,1025.8
2017-03-30T02:04:54.849Z,1025.8
2017-03-30T02:05:57.560Z,1025.7
2017-03-30T02:07:00.405Z,1025.8
2017-03-30T02:08:03.114Z,1025.8
2017-03-30T02:09:05.459Z,1025.8
2017-03-30T02:10:08.556Z,1025.9
2017-03-30T02:11:10.899Z,1025.8
2017-03-30T02:12:13.751Z,1025.9
2017-03-30T02:13:16.597Z,1025.8
2017-03-30T02:14:19.349Z,1025.8
2017-03-30T02:15:22.359Z,1025.9
2017-03-30T02:16:24.703Z,1025.9
2017-03-30T02:17:27.554Z,1025.9
2017-03-30T02:18:29.893Z,1025.9
2017-03-30T02:19:32.744Z,1025.8
2017-03-30T02:20:35.845Z,1025.8
2017-03-30T02:21:38.189Z,1025.8
2017-03-30T02:22:41.033Z,1025.8
2017-03-30T02:23:43.881Z,1025.8
2017-03-30T02:24:46.617Z,1025.8
2017-03-30T02:25:49.211Z,1025.7
2017-03-30T02:26:52.058Z,1025.8
2017-03-30T02:27:54.328Z,1025.8
2017-03-30T02:28:57.176Z,1025.8
2017-03-30T02:30:00.022Z,1025.8
2017-03-30T02:31:02.999Z,1025.8
2017-03-30T02:32:05.349Z,1025.8
2017-03-30T02:33:08.207Z,1025.8
2017-03-30T02:34:11.055Z,1025.8
2017-03-30T02:35:13.397Z,1025.8
2017-03-30T02:36:16.493Z,1025.8
2017-03-30T02:37:18.848Z,1025.8
2017-03-30T02:38:21.693Z,1025.8
2017-03-30T02:39:24.535Z,1025.8
2017-03-30T02:40:27.379Z,1025.8
2017-03-30T02:41:29.974Z,1025.8
2017-03-30T02:42:32.820Z,1025.8
2017-03-30T02:43:35.161Z,1025.8
2017-03-30T02:44:38.002Z,1025.8
2017-03-30T02:45:40.847Z,1025.8
2017-03-30T02:46:43.940Z,1025.8
2017-03-30T02:47:46.296Z,1025.8
2017-03-30T02:48:49.140Z,1025.8
2017-03-30T02:49:51.487Z,1025.8
2017-03-30T02:50:54.563Z,1025.9
2017-03-30T02:51:57.159Z,1025.9
2017-03-30T02:52:59.870Z,1025.8
2017-03-30T02:54:02.724Z,1025.8
2017-03-30T02:55:05.433Z,1025.8
2017-03-30T02:56:07.774Z,1025.8
2017-03-30T02:57:10.734Z,1025.8
2017-03-30T02:58:13.580Z,1025.9
2017-03-30T02:59:15.922Z,1025.8
2017-03-30T03:00:18.764Z,1025.8
2017-03-30T03:01:21.476Z,1025.8
2017-03-30T03:02:24.439Z,1025.8
2017-03-30T03:04:29.688Z,1025.8
2017-03-30T03:05:32.533Z,1025.9
2017-03-30T03:06:35.250Z,1025.9
2017-03-30T03:07:38.309Z,1025.9
2017-03-30T03:08:40.654Z,1025.8
2017-03-30T03:09:43.502Z,1025.8
2017-03-30T03:10:45.840Z,1025.8
2017-03-30T03:11:48.688Z,1025.7
2017-03-30T03:12:51.781Z,1025.7
2017-03-30T03:13:54.126Z,1025.7
2017-03-30T03:14:56.836Z,1025.7
2017-03-30T03:15:59.677Z,1025.7
2017-03-30T03:17:02.524Z,1025.8
2017-03-30T03:18:05.120Z,1025.8
2017-03-30T03:19:07.693Z,1025.8
2017-03-30T03:20:10.539Z,1025.7
2017-03-30T03:21:13.386Z,1025.7
2017-03-30T03:22:15.736Z,1025.7
2017-03-30T03:23:18.838Z,1025.8
2017-03-30T03:24:21.105Z,1025.8
2017-03-30T03:25:23.949Z,1025.8
2017-03-30T03:26:26.791Z,1025.7
2017-03-30T03:27:29.502Z,1025.8
2017-03-30T03:28:32.603Z,1025.8
2017-03-30T03:29:34.942Z,1025.7
2017-03-30T03:31:40.193Z,1025.8
2017-03-30T03:32:42.915Z,1025.8
2017-03-30T03:33:45.928Z,1025.8
2017-03-30T03:34:48.640Z,1025.9
2017-03-30T03:35:51.222Z,1025.8
2017-03-30T03:36:53.935Z,1025.8
2017-03-30T03:37:56.775Z,1025.8
2017-03-30T03:38:59.874Z,1025.8
2017-03-30T03:40:02.093Z,1025.8
2017-03-30T03:41:04.940Z,1025.9
2017-03-30T03:42:07.788Z,1025.9
2017-03-30T03:43:10.135Z,1025.9
2017-03-30T03:44:13.231Z,1025.9
2017-03-30T03:45:15.568Z,1025.9
2017-03-30T03:46:18.480Z,1025.9
2017-03-30T03:47:21.330Z,1025.9
2017-03-30T03:48:24.040Z,1026
2017-03-30T03:49:26.643Z,1026
2017-03-30T03:50:29.489Z,1025.9
2017-03-30T03:51:31.743Z,1026
2017-03-30T03:52:34.592Z,1026
2017-03-30T03:53:37.433Z,1025.9
2017-03-30T03:54:40.548Z,1025.9
2017-03-30T03:55:42.889Z,1025.9
2017-03-30T03:56:45.602Z,1025.9
2017-03-30T03:57:48.451Z,1025.9
2017-03-30T03:58:50.791Z,1026
2017-03-30T03:59:53.892Z,1026
2017-03-30T04:00:56.235Z,1026
2017-03-30T04:01:58.944Z,1025.9
2017-03-30T04:03:01.798Z,1026
2017-03-30T04:04:04.645Z,1026
2017-03-30T04:05:07.613Z,1025.9
2017-03-30T04:06:09.952Z,1025.9
2017-03-30T04:07:12.664Z,1025.9
2017-03-30T04:09:17.915Z,1026
2017-03-30T04:10:20.884Z,1026
2017-03-30T04:11:23.725Z,1026
2017-03-30T04:12:26.064Z,1026.1
2017-03-30T04:13:28.904Z,1026.1
2017-03-30T04:14:31.754Z,1026.1
2017-03-30T04:15:34.850Z,1026.1
2017-03-30T04:16:37.198Z,1026.1
2017-03-30T04:17:40.042Z,1026
2017-03-30T04:18:42.409Z,1026.1
2017-03-30T04:19:45.253Z,1026.1
2017-03-30T04:20:48.363Z,1026.1
2017-03-30T04:21:50.706Z,1026.1
2017-03-30T04:22:53.551Z,1026.1
2017-03-30T04:24:58.801Z,1026
2017-03-30T04:26:01.896Z,1026.1
2017-03-30T04:27:04.112Z,1026.1
2017-03-30T04:28:06.958Z,1026.1
2017-03-30T04:29:09.803Z,1026.1
2017-03-30T04:30:12.649Z,1026.1
2017-03-30T04:31:15.117Z,1026
2017-03-30T04:33:20.370Z,1026.1
2017-03-30T04:34:23.220Z,1026
2017-03-30T04:35:26.070Z,1026
2017-03-30T04:36:28.665Z,1026.1
2017-03-30T04:37:31.380Z,1026.1
2017-03-30T04:38:34.282Z,1026.1
2017-03-30T04:39:36.619Z,1026.1
2017-03-30T04:40:39.472Z,1026.1
2017-03-30T04:41:42.566Z,1026.1
2017-03-30T04:42:44.908Z,1026.1
2017-03-30T04:43:47.622Z,1026.1
2017-03-30T04:44:50.466Z,1026.1
2017-03-30T04:45:53.174Z,1026.1
2017-03-30T04:46:55.772Z,1026.1
2017-03-30T04:47:58.626Z,1026.1
2017-03-30T04:49:01.119Z,1026.1
2017-03-30T04:50:03.976Z,1026.1
2017-03-30T04:51:06.821Z,1026.1
2017-03-30T04:52:09.463Z,1026.1
2017-03-30T04:53:11.808Z,1026.1
2017-03-30T04:54:14.658Z,1026.1
2017-03-30T04:55:17.507Z,1026.1
2017-03-30T04:56:20.356Z,1026.1
2017-03-30T04:57:22.950Z,1026.1
2017-03-30T04:58:25.793Z,1026.1
2017-03-30T04:59:28.133Z,1026.1
2017-03-30T05:00:30.979Z,1026.1
2017-03-30T05:01:33.832Z,1026.2
2017-03-30T05:02:36.925Z,1026.2
2017-03-30T05:03:39.272Z,1026.2
2017-03-30T05:04:41.986Z,1026.2
2017-03-30T05:05:44.333Z,1026.2
2017-03-30T05:06:47.183Z,1026.2
2017-03-30T05:07:50.276Z,1026.2
2017-03-30T05:08:52.861Z,1026.2
2017-03-30T05:09:55.202Z,1026.2
2017-03-30T05:10:57.912Z,1026.2
2017-03-30T05:12:00.766Z,1026.2
2017-03-30T05:13:03.913Z,1026.2
2017-03-30T05:14:06.323Z,1026.2
2017-03-30T05:15:09.164Z,1026.3
2017-03-30T05:16:11.880Z,1026.3
2017-03-30T05:17:14.400Z,1026.3
2017-03-30T05:18:17.367Z,1026.3
2017-03-30T05:19:19.944Z,1026.3
2017-03-30T05:20:22.281Z,1026.3
2017-03-30T05:21:24.993Z,1026.3
2017-03-30T05:22:27.841Z,1026.3
2017-03-30T05:23:30.802Z,1026.3
2017-03-30T05:24:33.144Z,1026.3
2017-03-30T05:25:35.855Z,1026.3
2017-03-30T05:26:38.569Z,1026.3
2017-03-30T05:27:41.412Z,1026.3
2017-03-30T05:28:44.507Z,1026.3
2017-03-30T05:29:46.719Z,1026.3
2017-03-30T05:30:49.670Z,1026.4
2017-03-30T05:31:52.578Z,1026.4
2017-03-30T05:32:54.925Z,1026.4
2017-03-30T05:33:58.026Z,1026.5
2017-03-30T05:35:00.369Z,1026.5
2017-03-30T05:36:03.215Z,1026.5
2017-03-30T05:37:06.060Z,1026.4
2017-03-30T05:38:08.425Z,1026.4
2017-03-30T05:39:11.522Z,1026.4
2017-03-30T05:40:13.865Z,1026.4
2017-03-30T05:41:16.706Z,1026.5
2017-03-30T05:42:19.650Z,1026.5
2017-03-30T05:43:21.992Z,1026.5
2017-03-30T05:44:25.092Z,1026.4
2017-03-30T05:45:27.431Z,1026.5
2017-03-30T05:46:30.283Z,1026.5
2017-03-30T05:47:33.158Z,1026.5
2017-03-30T05:48:36.003Z,1026.4
2017-03-30T05:49:38.596Z,1026.5
2017-03-30T05:50:41.446Z,1026.5
2017-03-30T05:51:43.792Z,1026.4
2017-03-30T05:52:46.634Z,1026.5
2017-03-30T05:53:49.481Z,1026.5
2017-03-30T05:54:52.575Z,1026.5
2017-03-30T05:55:54.916Z,1026.5
2017-03-30T05:56:57.628Z,1026.5
2017-03-30T05:58:00.477Z,1026.5
2017-03-30T05:59:02.822Z,1026.5
2017-03-30T06:00:05.918Z,1026.6
2017-03-30T06:01:08.271Z,1026.6
2017-03-30T06:02:11.115Z,1026.5
2017-03-30T06:03:13.964Z,1026.5
2017-03-30T06:04:16.301Z,1026.5
2017-03-30T06:06:22.221Z,1026.5
2017-03-30T06:07:24.937Z,1026.5
2017-03-30T06:08:27.278Z,1026.5
2017-03-30T06:09:29.984Z,1026.5
2017-03-30T06:10:32.841Z,1026.5
2017-03-30T06:11:35.937Z,1026.5
2017-03-30T06:12:38.147Z,1026.5
2017-03-30T06:13:40.997Z,1026.5
2017-03-30T06:14:43.845Z,1026.5
2017-03-30T06:15:46.690Z,1026.5
2017-03-30T06:17:52.194Z,1026.5
2017-03-30T06:18:54.468Z,1026.5
2017-03-30T06:19:57.243Z,1026.5
2017-03-30T06:21:00.089Z,1026.5
2017-03-30T06:22:02.935Z,1026.6
2017-03-30T06:23:05.902Z,1026.5
2017-03-30T06:24:08.246Z,1026.6
2017-03-30T06:25:11.090Z,1026.5
2017-03-30T06:26:13.430Z,1026.5
2017-03-30T06:28:19.451Z,1026.6
2017-03-30T06:29:21.657Z,1026.6
2017-03-30T06:30:24.371Z,1026.6
2017-03-30T06:31:27.226Z,1026.6
2017-03-30T06:32:30.072Z,1026.6
2017-03-30T06:33:32.662Z,1026.6
2017-03-30T06:35:37.914Z,1026.5
2017-03-30T06:36:40.763Z,1026.5
2017-03-30T06:37:43.608Z,1026.5
2017-03-30T06:38:46.573Z,1026.5
2017-03-30T06:39:48.789Z,1026.5
2017-03-30T06:40:51.639Z,1026.5
2017-03-30T06:41:54.350Z,1026.5
2017-03-30T06:42:57.255Z,1026.5
2017-03-30T06:43:59.849Z,1026.5
2017-03-30T06:45:02.700Z,1026.5
2017-03-30T06:47:07.818Z,1026.5
2017-03-30T06:49:13.821Z,1026.5
2017-03-30T06:50:16.170Z,1026.5
2017-03-30T06:52:21.796Z,1026.6
2017-03-30T06:53:24.135Z,1026.6
2017-03-30T06:54:27.236Z,1026.6
2017-03-30T06:55:29.583Z,1026.6
2017-03-30T06:56:32.429Z,1026.5
2017-03-30T06:58:37.675Z,1026.5
2017-03-30T06:59:40.829Z,1026.5
2017-03-30T07:00:43.173Z,1026.5
2017-03-30T07:02:48.932Z,1026.5
2017-03-30T07:03:51.708Z,1026.5
2017-03-30T07:04:54.302Z,1026.5
2017-03-30T07:05:57.155Z,1026.6
2017-03-30T07:06:59.499Z,1026.6
2017-03-30T07:08:02.351Z,1026.6
2017-03-30T07:09:05.194Z,1026.6
2017-03-30T07:10:08.289Z,1026.6
2017-03-30T07:11:10.635Z,1026.6
2017-03-30T07:12:13.487Z,1026.5
2017-03-30T07:13:15.867Z,1026.6
2017-03-30T07:14:18.577Z,1026.5
2017-03-30T07:15:21.679Z,1026.5
2017-03-30T07:16:24.019Z,1026.5
2017-03-30T07:17:26.934Z,1026.5
2017-03-30T07:18:29.843Z,1026.5
2017-03-30T07:20:35.133Z,1026.6
2017-03-30T07:21:37.980Z,1026.6
2017-03-30T07:22:40.324Z,1026.6
2017-03-30T07:23:43.168Z,1026.6
2017-03-30T07:24:45.878Z,1026.6
2017-03-30T07:25:48.838Z,1026.6
2017-03-30T07:26:51.181Z,1026.6
2017-03-30T07:27:54.026Z,1026.6
2017-03-30T07:29:59.781Z,1026.6
2017-03-30T07:31:02.375Z,1026.7
2017-03-30T07:32:05.218Z,1026.7
2017-03-30T07:33:07.559Z,1026.7
2017-03-30T07:34:10.404Z,1026.7
2017-03-30T07:35:13.306Z,1026.7
2017-03-30T07:36:15.964Z,1026.7
2017-03-30T07:37:18.811Z,1026.7
2017-03-30T07:38:21.664Z,1026.8
2017-03-30T07:39:24.002Z,1026.8
2017-03-30T07:40:26.844Z,1026.8
2017-03-30T07:41:29.941Z,1026.8
2017-03-30T07:42:32.284Z,1026.8
2017-03-30T07:43:34.991Z,1026.8
2017-03-30T07:44:37.837Z,1026.8
2017-03-30T07:45:40.683Z,1026.8
2017-03-30T07:46:43.280Z,1026.8
2017-03-30T07:47:46.131Z,1026.8
2017-03-30T07:48:48.971Z,1026.8
2017-03-30T07:49:51.680Z,1026.8
2017-03-30T07:50:54.027Z,1026.7
2017-03-30T07:51:57.123Z,1026.8
2017-03-30T07:52:59.467Z,1026.8
2017-03-30T07:54:02.311Z,1026.8
2017-03-30T07:55:05.154Z,1026.8
2017-03-30T07:58:13.674Z,1026.8
2017-03-30T07:59:16.026Z,1026.9
2017-03-30T08:01:21.780Z,1026.8
2017-03-30T08:02:24.498Z,1026.9
2017-03-30T08:03:27.148Z,1026.9
2017-03-30T08:04:29.992Z,1026.9
2017-03-30T08:05:32.713Z,1026.9
2017-03-30T08:06:35.140Z,1026.9
2017-03-30T08:08:41.147Z,1026.9
2017-03-30T08:09:43.490Z,1026.9
2017-03-30T08:10:46.407Z,1026.9
2017-03-30T08:11:49.120Z,1026.9
2017-03-30T08:12:51.981Z,1026.9
2017-03-30T08:13:54.635Z,1026.9
2017-03-30T08:14:57.341Z,1026.9
2017-03-30T08:16:00.106Z,1026.9
2017-03-30T08:17:02.971Z,1026.9
2017-03-30T08:18:05.819Z,1026.9
2017-03-30T08:19:08.426Z,1026.9
2017-03-30T08:20:11.281Z,1026.9
2017-03-30T08:21:13.630Z,1026.9
2017-03-30T08:22:16.343Z,1026.9
2017-03-30T08:23:19.252Z,1026.9
2017-03-30T08:24:22.266Z,1026.9
2017-03-30T08:25:24.605Z,1027
2017-03-30T08:26:27.453Z,1026.9
2017-03-30T08:27:30.302Z,1026.9
2017-03-30T08:28:33.010Z,1026.9
2017-03-30T08:29:36.168Z,1026.9
2017-03-30T08:30:38.544Z,1026.9
2017-03-30T08:31:41.393Z,1026.9
2017-03-30T08:32:44.234Z,1026.9
2017-03-30T08:33:47.082Z,1026.9
2017-03-30T08:34:50.231Z,1026.9
2017-03-30T08:35:52.570Z,1026.9
2017-03-30T08:36:55.279Z,1026.9
2017-03-30T08:37:58.129Z,1026.9
2017-03-30T08:39:00.970Z,1026.9
2017-03-30T08:40:03.615Z,1026.9
2017-03-30T08:41:06.467Z,1026.9
2017-03-30T08:42:08.872Z,1026.9
2017-03-30T08:43:11.722Z,1027
2017-03-30T08:45:17.774Z,1027
2017-03-30T08:46:20.121Z,1027
2017-03-30T08:47:22.965Z,1027
2017-03-30T08:48:25.817Z,1027
2017-03-30T08:49:28.321Z,1027
2017-03-30T08:50:31.472Z,1027.1
2017-03-30T08:51:34.192Z,1027
2017-03-30T08:52:36.845Z,1027.1
2017-03-30T08:53:39.560Z,1027
2017-03-30T08:55:45.572Z,1027.1
2017-03-30T08:56:47.912Z,1027.1
2017-03-30T08:57:50.764Z,1027.1
2017-03-30T08:58:53.614Z,1027
2017-03-30T08:59:55.963Z,1027.1
2017-03-30T09:02:01.760Z,1027
2017-03-30T09:03:04.606Z,1027
2017-03-30T09:04:07.520Z,1027
2017-03-30T09:05:09.934Z,1027
2017-03-30T09:07:15.994Z,1027.1
2017-03-30T09:08:18.344Z,1027.1
2017-03-30T09:09:21.191Z,1027.1
2017-03-30T09:10:24.039Z,1027.1
2017-03-30T09:11:26.888Z,1027.1
2017-03-30T09:12:29.989Z,1027
2017-03-30T09:13:32.331Z,1027.1
2017-03-30T09:14:35.040Z,1027
2017-03-30T09:15:37.881Z,1027
2017-03-30T09:16:40.732Z,1027.1
2017-03-30T09:17:43.891Z,1027
2017-03-30T09:18:46.103Z,1027
2017-03-30T09:19:48.959Z,1027
2017-03-30T09:20:51.806Z,1027
2017-03-30T09:21:54.654Z,1027
2017-03-30T09:24:00.157Z,1027
2017-03-30T09:25:03.007Z,1027
2017-03-30T09:26:05.716Z,1027
2017-03-30T09:27:08.429Z,1027.1
2017-03-30T09:28:11.208Z,1027
2017-03-30T09:30:17.194Z,1027
2017-03-30T09:31:19.539Z,1027
2017-03-30T09:32:22.391Z,1026.9
2017-03-30T09:33:25.105Z,1026.9
2017-03-30T09:34:27.950Z,1026.9
2017-03-30T09:35:30.968Z,1026.9
2017-03-30T09:36:33.685Z,1026.9
2017-03-30T09:37:36.400Z,1026.9
2017-03-30T09:38:39.245Z,1026.9
2017-03-30T09:39:42.089Z,1026.9
2017-03-30T09:40:45.188Z,1026.9
2017-03-30T09:41:47.538Z,1026.9
2017-03-30T09:42:50.380Z,1026.9
2017-03-30T09:43:53.225Z,1026.9
2017-03-30T09:44:56.088Z,1026.9
2017-03-30T09:45:59.187Z,1026.8
2017-03-30T09:47:01.530Z,1026.8
2017-03-30T09:48:04.380Z,1026.9
2017-03-30T09:49:07.230Z,1026.8
2017-03-30T09:50:10.156Z,1026.8
2017-03-30T09:52:15.662Z,1026.8
2017-03-30T09:53:18.242Z,1026.8
2017-03-30T09:54:21.094Z,1026.8
2017-03-30T09:55:23.945Z,1026.8
2017-03-30T09:56:26.653Z,1026.8
2017-03-30T09:57:30.121Z,1026.8
2017-03-30T09:58:32.460Z,1026.8
2017-03-30T09:59:35.301Z,1026.8
2017-03-30T10:00:38.153Z,1026.8
2017-03-30T10:01:40.999Z,1026.8
2017-03-30T10:02:44.105Z,1026.8
2017-03-30T10:03:46.315Z,1026.8
2017-03-30T10:04:49.534Z,1026.8
2017-03-30T10:05:52.384Z,1026.8
2017-03-30T10:06:55.095Z,1026.8
2017-03-30T10:07:58.166Z,1026.8
2017-03-30T10:09:00.516Z,1026.8
2017-03-30T10:10:03.228Z,1026.8
2017-03-30T10:11:06.307Z,1026.8
2017-03-30T10:12:09.153Z,1026.8
2017-03-30T10:13:12.249Z,1026.8
2017-03-30T10:14:14.594Z,1026.8
2017-03-30T10:15:17.366Z,1026.8
2017-03-30T10:16:20.214Z,1026.8
2017-03-30T10:17:23.063Z,1026.9
2017-03-30T10:18:26.168Z,1026.8
2017-03-30T10:19:28.509Z,1026.8
2017-03-30T10:20:31.362Z,1026.8
2017-03-30T10:21:34.214Z,1026.8
2017-03-30T10:22:37.059Z,1026.8
2017-03-30T10:23:40.163Z,1026.7
2017-03-30T10:24:42.749Z,1026.7
2017-03-30T10:25:45.595Z,1026.7
2017-03-30T10:26:48.445Z,1026.7
2017-03-30T10:27:51.291Z,1026.7
2017-03-30T10:28:54.385Z,1026.7
2017-03-30T10:30:59.502Z,1026.7
2017-03-30T10:32:02.343Z,1026.7
2017-03-30T10:33:05.196Z,1026.7
2017-03-30T10:34:08.294Z,1026.7
2017-03-30T10:35:10.640Z,1026.7
2017-03-30T10:36:13.723Z,1026.6
2017-03-30T10:37:16.571Z,1026.5
2017-03-30T10:38:19.412Z,1026.6
2017-03-30T10:39:22.372Z,1026.6
2017-03-30T10:40:24.608Z,1026.5
2017-03-30T10:41:27.457Z,1026.5
2017-03-30T10:42:30.302Z,1026.5
2017-03-30T10:43:33.146Z,1026.5
2017-03-30T10:44:36.157Z,1026.5
2017-03-30T10:45:39.005Z,1026.5
2017-03-30T10:47:44.261Z,1026.5
2017-03-30T10:48:47.106Z,1026.5
2017-03-30T10:49:50.577Z,1026.5
2017-03-30T10:50:52.921Z,1026.5
2017-03-30T10:52:58.677Z,1026.5
2017-03-30T10:54:01.521Z,1026.5
2017-03-30T10:55:04.614Z,1026.5
2017-03-30T10:56:07.014Z,1026.5
2017-03-30T10:58:12.767Z,1026.5
2017-03-30T10:59:15.476Z,1026.5
2017-03-30T11:00:18.477Z,1026.5
2017-03-30T11:01:20.821Z,1026.5
2017-03-30T11:02:23.669Z,1026.5
2017-03-30T11:04:29.291Z,1026.6
2017-03-30T11:05:32.439Z,1026.6
2017-03-30T11:06:35.287Z,1026.5
2017-03-30T11:07:38.133Z,1026.5
2017-03-30T11:08:40.477Z,1026.5
2017-03-30T11:09:43.694Z,1026.5
2017-03-30T11:10:46.710Z,1026.5
2017-03-30T11:11:49.049Z,1026.5
2017-03-30T11:12:51.903Z,1026.6
2017-03-30T11:13:54.744Z,1026.6
2017-03-30T11:14:57.450Z,1026.6
2017-03-30T11:16:00.411Z,1026.6
2017-03-30T11:17:03.121Z,1026.6
2017-03-30T11:18:05.902Z,1026.5
2017-03-30T11:19:08.984Z,1026.5
2017-03-30T11:20:11.697Z,1026.5
2017-03-30T11:21:14.657Z,1026.5
2017-03-30T11:22:17.430Z,1026.4
2017-03-30T11:23:20.276Z,1026.4
2017-03-30T11:24:23.117Z,1026.4
2017-03-30T11:25:25.832Z,1026.4
2017-03-30T11:26:28.980Z,1026.4
2017-03-30T11:27:31.190Z,1026.4
2017-03-30T11:28:34.405Z,1026.4
2017-03-30T11:29:36.992Z,1026.3
2017-03-30T11:30:39.839Z,1026.4
2017-03-30T11:31:42.908Z,1026.4
2017-03-30T11:32:45.250Z,1026.3
2017-03-30T11:33:48.096Z,1026.4
2017-03-30T11:34:51.310Z,1026.3
2017-03-30T11:35:54.027Z,1026.3
2017-03-30T11:36:57.191Z,1026.3
2017-03-30T11:37:59.530Z,1026.3
2017-03-30T11:39:02.401Z,1026.3
2017-03-30T11:40:05.306Z,1026.2
2017-03-30T11:41:07.886Z,1026.3
2017-03-30T11:42:11.014Z,1026.2
2017-03-30T11:42:41.020Z,1026.2
2017-03-30T11:43:13.535Z,1026.2
2017-03-30T11:45:19.290Z,1026.1
2017-03-30T11:46:21.998Z,1026.1
2017-03-30T11:47:25.145Z,1026
2017-03-30T11:48:27.488Z,1026.1
2017-03-30T11:49:30.699Z,1026.1
2017-03-30T11:50:33.547Z,1026.1
2017-03-30T11:51:35.890Z,1026.1
2017-03-30T11:52:38.986Z,1026.1
2017-03-30T11:53:41.691Z,1026.1
2017-03-30T11:54:44.538Z,1026.1
2017-03-30T11:56:50.301Z,1026.1
2017-03-30T11:57:53.401Z,1026
2017-03-30T11:58:55.750Z,1026
2017-03-30T11:59:58.601Z,1026.1
2017-03-30T12:01:01.445Z,1026.1
2017-03-30T12:02:04.295Z,1026
2017-03-30T12:03:07.396Z,1026
2017-03-30T12:04:09.739Z,1025.9
2017-03-30T12:05:12.585Z,1026
2017-03-30T12:06:15.298Z,1026
2017-03-30T12:07:18.146Z,1026
2017-03-30T12:08:21.299Z,1025.9
2017-03-30T12:09:23.639Z,1026
2017-03-30T12:10:26.484Z,1025.9
2017-03-30T12:12:32.121Z,1025.9
2017-03-30T12:21:58.056Z,1025.9
2017-03-30T12:35:34.059Z,1025.9
2017-03-30T12:46:02.354Z,1025.8
2017-03-30T12:55:27.729Z,1025.7
2017-03-30T12:56:30.069Z,1025.7
2017-03-30T12:57:32.837Z,1025.8
2017-03-30T12:58:35.699Z,1025.8
2017-03-30T12:59:38.554Z,1025.8
2017-03-30T13:01:44.627Z,1025.8
2017-03-30T13:03:49.933Z,1025.8
2017-03-30T13:05:55.707Z,1025.7
2017-03-30T13:06:58.808Z,1025.7
2017-03-30T13:08:01.210Z,1025.7
2017-03-30T13:09:04.052Z,1025.7
2017-03-30T13:11:09.808Z,1025.7
2017-03-30T13:12:12.514Z,1025.6
2017-03-30T13:14:17.764Z,1025.6
2017-03-30T13:15:20.982Z,1025.6
2017-03-30T13:17:26.858Z,1025.6
2017-03-30T13:18:29.199Z,1025.6
2017-03-30T13:19:32.044Z,1025.6
2017-03-30T13:20:34.918Z,1025.5
2017-03-30T13:21:37.628Z,1025.5
2017-03-30T13:25:49.382Z,1025.5
2017-03-30T13:27:54.362Z,1025.4
2017-03-30T13:30:00.121Z,1025.4
2017-03-30T13:31:03.090Z,1025.4
2017-03-30T13:32:05.936Z,1025.4
2017-03-30T13:33:08.643Z,1025.4
2017-03-30T13:34:11.365Z,1025.4
2017-03-30T13:36:17.238Z,1025.4
2017-03-30T13:37:19.819Z,1025.5
2017-03-30T13:38:22.660Z,1025.4
2017-03-30T13:39:25.562Z,1025.4
2017-03-30T13:40:27.909Z,1025.3
2017-03-30T13:41:31.002Z,1025.3
2017-03-30T13:42:33.847Z,1025.3
2017-03-30T13:43:36.750Z,1025.3
2017-03-30T13:44:39.465Z,1025.3
2017-03-30T13:45:42.309Z,1025.3
2017-03-30T13:46:45.510Z,1025.3
2017-03-30T13:47:47.855Z,1025.3
2017-03-30T13:48:50.568Z,1025.3
2017-03-30T13:50:56.325Z,1025.3
2017-03-30T13:51:59.419Z,1025.2
2017-03-30T13:53:01.763Z,1025.3
2017-03-30T13:54:04.615Z,1025.3
2017-03-30T13:55:07.328Z,1025.3
2017-03-30T13:56:10.168Z,1025.2
2017-03-30T13:57:13.267Z,1025.2
2017-03-30T14:00:21.433Z,1025.1
2017-03-30T14:01:24.277Z,1025.2
2017-03-30T14:02:27.375Z,1025.2
2017-03-30T14:03:29.719Z,1025.2
2017-03-30T14:04:32.563Z,1025.1
2017-03-30T14:05:35.411Z,1025.2
2017-03-30T14:06:38.257Z,1025.1
2017-03-30T14:11:52.566Z,1025.1
2017-03-30T14:15:00.602Z,1025.1
2017-03-30T14:16:03.822Z,1025.1
2017-03-30T14:19:12.291Z,1025.1
2017-03-30T14:21:17.545Z,1025
2017-03-30T14:23:23.299Z,1025
2017-03-30T14:24:26.309Z,1025
2017-03-30T14:25:29.082Z,1025
2017-03-30T14:26:31.988Z,1025
2017-03-30T14:27:34.330Z,1025
2017-03-30T14:28:37.187Z,1025
2017-03-30T14:29:40.590Z,1025
2017-03-30T14:30:42.933Z,1024.9
2017-03-30T14:31:45.779Z,1025
2017-03-30T14:32:48.631Z,1025
2017-03-30T14:33:51.472Z,1024.9
2017-03-30T14:34:54.437Z,1025
2017-03-30T14:36:59.686Z,1025
2017-03-30T14:38:02.526Z,1025
2017-03-30T14:39:05.230Z,1025
2017-03-30T14:40:08.349Z,1025
2017-03-30T14:41:11.199Z,1025
2017-03-30T14:45:22.584Z,1025
2017-03-30T14:46:24.925Z,1024.9
2017-03-30T14:47:27.771Z,1024.9
2017-03-30T14:48:30.617Z,1025
2017-03-30T14:50:36.922Z,1024.9
2017-03-30T14:55:50.654Z,1024.9
2017-03-30T14:57:55.905Z,1024.9
2017-03-30T14:58:58.752Z,1024.9
2017-03-30T15:00:01.598Z,1024.9
2017-03-30T15:01:04.568Z,1024.9
2017-03-30T15:02:07.413Z,1024.9
2017-03-30T15:04:13.031Z,1024.9
2017-03-30T15:05:15.875Z,1024.9
2017-03-30T15:06:19.019Z,1024.9
2017-03-30T15:07:21.420Z,1024.8
2017-03-30T15:08:24.271Z,1024.9